createdAt,value
2018-07-21T00:01:23.404Z,6.77
2018-07-21T00:03:52.612Z,5.60
2018-07-21T00:06:21.832Z,5.47
2018-07-21T00:08:51.060Z,6.87
2018-07-21T00:11:20.329Z,6.17
2018-07-21T00:13:49.515Z,6.47
2018-07-21T00:16:18.507Z,6.17
2018-07-21T00:18:47.779Z,5.93
2018-07-21T00:21:17.013Z,5.37
2018-07-21T00:23:46.221Z,5.80
2018-07-21T00:26:15.567Z,6.17
2018-07-21T00:28:44.919Z,5.33
2018-07-21T00:31:14.094Z,5.43
2018-07-21T00:33:43.281Z,6.00
2018-07-21T00:36:12.535Z,6.70
2018-07-21T00:38:41.773Z,7.07
2018-07-21T00:41:11.024Z,7.40
2018-07-21T00:43:40.022Z,7.90
2018-07-21T00:46:09.259Z,8.67
2018-07-21T00:48:38.260Z,7.90
2018-07-21T00:51:07.508Z,9.70
2018-07-21T00:53:36.736Z,9.10
2018-07-21T00:56:05.992Z,10.20
2018-07-21T00:58:34.977Z,11.93
2018-07-21T01:01:04.532Z,11.23
2018-07-21T01:03:33.856Z,12.57
2018-07-21T01:06:02.855Z,12.23
2018-07-21T01:08:32.210Z,12.00
2018-07-21T01:11:01.552Z,11.70
2018-07-21T01:13:30.076Z,11.90
2018-07-21T01:15:59.376Z,11.93
2018-07-21T01:18:28.604Z,12.17
2018-07-21T01:20:57.847Z,12.17
2018-07-21T01:23:27.064Z,11.97
2018-07-21T01:25:56.292Z,12.10
2018-07-21T01:28:25.625Z,13.33
2018-07-21T01:30:54.954Z,12.13
2018-07-21T01:33:24.224Z,12.90
2018-07-21T01:35:53.790Z,12.80
2018-07-21T01:38:23.003Z,12.60
2018-07-21T01:40:52.018Z,12.50
2018-07-21T01:43:21.260Z,13.27
2018-07-21T01:45:50.487Z,13.53
2018-07-21T01:48:19.716Z,12.97
2018-07-21T01:50:49.052Z,13.17
2018-07-21T01:53:18.361Z,11.37
2018-07-21T01:55:47.504Z,12.33
2018-07-21T01:58:16.821Z,11.60
2018-07-21T02:00:46.041Z,11.87
2018-07-21T02:03:15.256Z,12.60
2018-07-21T02:05:44.309Z,13.33
2018-07-21T02:08:13.296Z,13.43
2018-07-21T02:10:42.663Z,11.90
2018-07-21T02:13:11.990Z,12.63
2018-07-21T02:15:41.196Z,12.80
2018-07-21T02:18:10.242Z,12.17
2018-07-21T02:20:39.224Z,13.30
2018-07-21T02:23:08.595Z,11.90
2018-07-21T02:25:37.916Z,12.27
2018-07-21T02:28:07.129Z,13.80
2018-07-21T02:30:36.273Z,12.73
2018-07-21T02:33:05.797Z,12.43
2018-07-21T02:35:35.003Z,12.30
2018-07-21T02:38:04.532Z,12.20
2018-07-21T02:40:33.880Z,13.73
2018-07-21T02:43:03.190Z,13.30
2018-07-21T02:45:32.517Z,13.63
2018-07-21T02:48:01.725Z,12.50
2018-07-21T02:50:31.064Z,12.77
2018-07-21T02:53:00.880Z,12.23
2018-07-21T02:55:30.695Z,12.10
2018-07-21T02:58:00.315Z,13.20
2018-07-21T03:00:29.392Z,13.73
2018-07-21T03:02:58.648Z,13.77
2018-07-21T03:05:27.885Z,13.17
2018-07-21T03:07:56.919Z,12.93
2018-07-21T03:10:26.176Z,13.73
2018-07-21T03:12:55.128Z,13.33
2018-07-21T03:15:24.163Z,13.73
2018-07-21T03:17:53.417Z,13.83
2018-07-21T03:20:22.664Z,14.73
2018-07-21T03:22:51.258Z,13.33
2018-07-21T03:25:20.505Z,13.03
2018-07-21T03:27:49.497Z,12.77
2018-07-21T03:30:18.756Z,14.93
2018-07-21T03:32:48.102Z,14.13
2018-07-21T03:35:17.421Z,13.70
2018-07-21T03:37:46.421Z,14.20
2018-07-21T03:40:15.856Z,14.00
2018-07-21T03:42:45.552Z,15.10
2018-07-21T03:45:14.820Z,14.93
2018-07-21T03:47:44.129Z,14.63
2018-07-21T03:50:13.367Z,15.43
2018-07-21T03:52:42.516Z,14.80
2018-07-21T03:55:11.593Z,15.30
2018-07-21T03:57:40.950Z,16.07
2018-07-21T04:00:10.192Z,14.37
2018-07-21T04:02:39.425Z,16.33
2018-07-21T04:05:08.820Z,15.43
2018-07-21T04:07:38.085Z,14.83
2018-07-21T04:10:07.303Z,15.60
2018-07-21T04:12:36.293Z,15.83
2018-07-21T04:15:05.400Z,16.13
2018-07-21T04:17:34.588Z,15.73
2018-07-21T04:20:03.609Z,14.73
2018-07-21T04:22:32.839Z,14.37
2018-07-21T04:25:02.094Z,13.77
2018-07-21T04:27:31.296Z,15.90
2018-07-21T04:30:00.535Z,14.90
2018-07-21T04:32:29.755Z,15.33
2018-07-21T04:34:58.985Z,14.00
2018-07-21T04:37:28.361Z,13.90
2018-07-21T04:39:57.617Z,13.93
2018-07-21T04:42:26.846Z,13.10
2018-07-21T04:44:56.067Z,13.77
2018-07-21T04:47:25.302Z,13.77
2018-07-21T04:49:54.283Z,14.57
2018-07-21T04:52:23.545Z,13.73
2018-07-21T04:54:52.794Z,13.60
2018-07-21T04:57:22.016Z,13.43
2018-07-21T04:59:51.001Z,13.93
2018-07-21T05:02:20.033Z,14.13
2018-07-21T05:04:49.108Z,13.30
2018-07-21T05:07:18.145Z,15.47
2018-07-21T05:09:47.122Z,15.50
2018-07-21T05:12:16.368Z,13.20
2018-07-21T05:14:45.594Z,12.27
2018-07-21T05:17:14.823Z,11.90
2018-07-21T05:19:44.077Z,12.63
2018-07-21T05:22:13.272Z,11.90
2018-07-21T05:24:42.533Z,10.60
2018-07-21T05:27:11.507Z,11.03
2018-07-21T05:29:40.540Z,10.23
2018-07-21T05:32:09.762Z,10.70
2018-07-21T05:34:39.020Z,7.60
2018-07-21T05:37:08.044Z,6.37
2018-07-21T05:39:37.055Z,5.87
2018-07-21T05:42:06.095Z,4.80
2018-07-21T05:44:35.304Z,5.30
2018-07-21T05:47:04.563Z,4.60
2018-07-21T05:49:33.773Z,4.63
2018-07-21T05:52:02.295Z,4.57
2018-07-21T05:54:31.515Z,4.60
2018-07-21T05:57:00.443Z,4.40
2018-07-21T05:59:29.485Z,4.33
2018-07-21T06:01:58.748Z,4.07
2018-07-21T06:04:27.288Z,4.60
2018-07-21T06:06:55.738Z,3.93
2018-07-21T06:09:24.836Z,4.47
2018-07-21T06:11:53.851Z,3.90
2018-07-21T06:14:22.861Z,3.70
2018-07-21T06:16:52.120Z,3.50
2018-07-21T06:19:21.357Z,3.83
2018-07-21T06:21:50.597Z,4.20
2018-07-21T06:24:19.621Z,3.63
2018-07-21T06:26:48.852Z,3.20
2018-07-21T06:29:18.065Z,3.57
2018-07-21T06:31:46.563Z,3.17
2018-07-21T06:34:15.251Z,3.23
2018-07-21T06:36:44.363Z,3.40
2018-07-21T06:39:13.614Z,3.33
2018-07-21T06:41:42.983Z,3.40
2018-07-21T06:44:12.228Z,2.63
2018-07-21T06:46:41.436Z,2.67
2018-07-21T06:49:10.651Z,3.17
2018-07-21T06:51:39.908Z,3.10
2018-07-21T06:54:08.957Z,3.23
2018-07-21T06:56:38.521Z,3.50
2018-07-21T06:59:06.990Z,3.20
2018-07-21T07:01:36.235Z,3.87
2018-07-21T07:04:04.720Z,3.53
2018-07-21T07:06:33.191Z,3.20
2018-07-21T07:09:01.655Z,3.07
2018-07-21T07:11:30.123Z,3.17
2018-07-21T07:13:58.583Z,3.00
2018-07-21T07:16:27.167Z,3.20
2018-07-21T07:18:55.607Z,3.00
2018-07-21T07:21:24.077Z,4.00
2018-07-21T07:23:52.609Z,3.43
2018-07-21T07:26:21.077Z,3.30
2018-07-21T07:28:49.855Z,3.47
2018-07-21T07:31:18.311Z,3.30
2018-07-21T07:33:46.772Z,3.63
2018-07-21T07:36:15.232Z,3.30
2018-07-21T07:38:43.716Z,3.50
2018-07-21T07:41:12.427Z,3.57
2018-07-21T07:43:40.895Z,3.97
2018-07-21T07:46:09.421Z,3.63
2018-07-21T07:48:38.003Z,3.90
2018-07-21T07:51:06.513Z,4.60
2018-07-21T07:53:35.584Z,3.93
2018-07-21T07:56:04.831Z,4.13
2018-07-21T07:58:33.330Z,4.40
2018-07-21T08:01:01.821Z,5.07
2018-07-21T08:03:30.938Z,4.93
2018-07-21T08:05:59.953Z,5.30
2018-07-21T08:08:29.285Z,6.30
2018-07-21T08:10:58.445Z,6.00
2018-07-21T08:13:27.643Z,5.70
2018-07-21T08:15:56.664Z,6.30
2018-07-21T08:18:25.728Z,5.47
2018-07-21T08:20:54.821Z,5.87
2018-07-21T08:23:23.736Z,6.03
2018-07-21T08:25:53.415Z,5.90
2018-07-21T08:28:22.607Z,6.17
2018-07-21T08:30:51.632Z,5.87
2018-07-21T08:33:20.906Z,5.30
2018-07-21T08:35:49.931Z,5.80
2018-07-21T08:38:19.183Z,5.03
2018-07-21T08:40:47.739Z,5.07
2018-07-21T08:43:16.230Z,5.50
2018-07-21T08:45:45.598Z,5.30
2018-07-21T08:48:14.655Z,5.13
2018-07-21T08:50:43.844Z,5.33
2018-07-21T08:53:12.924Z,4.90
2018-07-21T08:55:42.165Z,5.13
2018-07-21T08:58:11.171Z,4.93
2018-07-21T09:00:40.226Z,5.30
2018-07-21T09:03:08.682Z,6.30
2018-07-21T09:05:37.944Z,4.93
2018-07-21T09:08:06.819Z,5.00
2018-07-21T09:10:35.911Z,4.43
2018-07-21T09:13:05.155Z,4.83
2018-07-21T09:15:34.369Z,4.77
2018-07-21T09:18:03.368Z,4.97
2018-07-21T09:20:32.399Z,4.27
2018-07-21T09:23:01.667Z,4.67
2018-07-21T09:25:31.045Z,4.57
2018-07-21T09:28:00.137Z,4.20
2018-07-21T09:30:29.112Z,4.10
2018-07-21T09:32:58.356Z,5.37
2018-07-21T09:35:27.579Z,4.27
2018-07-21T09:37:56.637Z,4.33
2018-07-21T09:40:25.619Z,4.87
2018-07-21T09:42:55.040Z,4.63
2018-07-21T09:45:24.304Z,4.47
2018-07-21T09:47:53.545Z,4.40
2018-07-21T09:50:22.743Z,4.63
2018-07-21T09:52:51.953Z,4.80
2018-07-21T09:55:21.216Z,5.10
2018-07-21T09:57:50.428Z,4.57
2018-07-21T10:01:24.109Z,5.07
2018-07-21T10:03:53.359Z,4.27
2018-07-21T10:06:22.593Z,4.40
2018-07-21T10:08:51.864Z,4.33
2018-07-21T10:11:20.827Z,3.70
2018-07-21T10:13:49.874Z,4.43
2018-07-21T10:16:19.657Z,4.17
2018-07-21T10:18:49.867Z,4.17
2018-07-21T10:21:19.540Z,4.07
2018-07-21T10:23:48.752Z,3.97
2018-07-21T10:26:22.827Z,4.20
2018-07-21T10:28:56.840Z,4.17
2018-07-21T10:31:26.105Z,4.03
2018-07-21T10:33:55.305Z,3.80
2018-07-21T10:36:24.503Z,3.57
2018-07-21T10:38:53.784Z,4.13
2018-07-21T10:41:22.947Z,4.23
2018-07-21T10:43:51.961Z,4.50
2018-07-21T10:46:20.975Z,4.83
2018-07-21T10:48:50.037Z,4.57
2018-07-21T10:51:19.061Z,4.67
2018-07-21T10:53:48.260Z,5.57
2018-07-21T10:56:17.547Z,5.40
2018-07-21T10:58:46.784Z,3.90
2018-07-21T11:01:15.973Z,4.57
2018-07-21T11:03:45.208Z,4.40
2018-07-21T11:06:14.431Z,4.50
2018-07-21T11:08:42.904Z,4.40
2018-07-21T11:11:11.447Z,4.50
2018-07-21T11:13:39.956Z,4.90
2018-07-21T11:16:08.481Z,4.80
2018-07-21T11:18:36.959Z,4.13
2018-07-21T11:21:06.052Z,5.00
2018-07-21T11:23:35.276Z,4.20
2018-07-21T11:26:04.750Z,4.53
2018-07-21T11:28:33.921Z,4.03
2018-07-21T11:31:03.134Z,5.10
2018-07-21T11:33:32.139Z,4.83
2018-07-21T11:36:01.552Z,4.80
2018-07-21T11:38:30.427Z,4.10
2018-07-21T11:40:59.692Z,4.97
2018-07-21T11:43:29.291Z,4.00
2018-07-21T11:45:58.516Z,5.03
2018-07-21T11:48:27.733Z,4.00
2018-07-21T11:50:56.952Z,4.13
2018-07-21T11:53:26.195Z,4.37
2018-07-21T11:55:55.398Z,4.17
2018-07-21T11:58:24.628Z,4.23
2018-07-21T12:00:53.856Z,4.53
2018-07-21T12:03:23.093Z,3.80
2018-07-21T12:05:52.317Z,4.00
2018-07-21T12:08:21.332Z,4.20
2018-07-21T12:10:50.562Z,3.70
2018-07-21T12:13:20.001Z,4.07
2018-07-21T12:15:48.573Z,3.93
2018-07-21T12:18:17.039Z,4.20
2018-07-21T12:20:46.109Z,4.30
2018-07-21T12:23:15.340Z,4.20
2018-07-21T12:25:44.553Z,4.10
2018-07-21T12:28:13.803Z,4.03
2018-07-21T12:30:43.069Z,3.40
2018-07-21T12:33:12.073Z,3.90
2018-07-21T12:35:41.085Z,3.40
2018-07-21T12:38:10.100Z,3.83
2018-07-21T12:40:39.324Z,3.60
2018-07-21T12:43:08.600Z,3.97
2018-07-21T12:45:38.078Z,3.43
2018-07-21T12:48:07.360Z,3.47
2018-07-21T12:50:36.295Z,3.90
2018-07-21T12:53:04.776Z,3.63
2018-07-21T12:55:33.254Z,3.07
2018-07-21T12:58:02.532Z,3.40
2018-07-21T13:00:31.976Z,3.50
2018-07-21T13:03:01.513Z,3.43
2018-07-21T13:05:30.580Z,3.43
2018-07-21T13:07:59.818Z,2.93
2018-07-21T13:10:28.854Z,8.50
2018-07-21T13:12:58.174Z,3.67
2018-07-21T13:15:27.309Z,2.93
2018-07-21T13:17:56.830Z,3.07
2018-07-21T13:20:26.272Z,3.20
2018-07-21T13:22:55.389Z,2.97
2018-07-21T13:25:24.261Z,3.20
2018-07-21T13:27:53.761Z,3.10
2018-07-21T13:30:23.196Z,3.33
2018-07-21T13:32:52.305Z,3.97
2018-07-21T13:35:21.529Z,3.40
2018-07-21T13:37:50.824Z,3.50
2018-07-21T13:40:19.727Z,3.43
2018-07-21T13:42:48.756Z,2.70
2018-07-21T13:45:17.764Z,3.17
2018-07-21T13:47:46.860Z,2.97
2018-07-21T13:50:16.084Z,3.07
2018-07-21T13:52:45.341Z,3.10
2018-07-21T13:55:14.513Z,2.93
2018-07-21T13:57:43.788Z,3.10
2018-07-21T14:00:12.968Z,3.10
2018-07-21T14:02:42.192Z,3.20
2018-07-21T14:05:11.195Z,3.13
2018-07-21T14:07:40.617Z,3.10
2018-07-21T14:10:09.871Z,3.07
2018-07-21T14:12:39.103Z,2.90
2018-07-21T14:15:08.110Z,3.27
2018-07-21T14:17:37.156Z,2.70
2018-07-21T14:20:06.403Z,3.20
2018-07-21T14:22:35.621Z,3.03
2018-07-21T14:25:05.448Z,3.00
2018-07-21T14:27:34.664Z,2.83
2018-07-21T14:30:03.732Z,3.10
2018-07-21T14:32:32.906Z,3.80
2018-07-21T14:35:01.896Z,3.40
2018-07-21T14:37:30.924Z,2.97
2018-07-21T14:40:00.215Z,3.37
2018-07-21T14:42:29.201Z,2.60
2018-07-21T14:44:58.460Z,3.17
2018-07-21T14:47:27.463Z,2.90
2018-07-21T14:49:56.486Z,2.90
2018-07-21T14:52:25.701Z,3.20
2018-07-21T14:54:55.030Z,2.97
2018-07-21T14:57:24.666Z,3.30
2018-07-21T14:59:53.581Z,2.60
2018-07-21T15:02:22.998Z,2.80
2018-07-21T15:04:52.225Z,2.93
2018-07-21T15:07:21.317Z,3.10
2018-07-21T15:09:50.507Z,2.97
2018-07-21T15:12:19.565Z,3.10
2018-07-21T15:14:48.771Z,3.50
2018-07-21T15:17:17.994Z,2.70
2018-07-21T15:19:47.236Z,2.73
2018-07-21T15:22:16.447Z,2.53
2018-07-21T15:24:45.437Z,3.00
2018-07-21T15:27:14.627Z,2.90
2018-07-21T15:29:43.541Z,2.73
2018-07-21T15:32:12.521Z,2.57
2018-07-21T15:34:41.562Z,2.70
2018-07-21T15:37:10.585Z,2.93
2018-07-21T15:39:39.642Z,2.93
2018-07-21T15:42:08.798Z,2.73
2018-07-21T15:44:38.104Z,2.40
2018-07-21T15:47:07.319Z,2.93
2018-07-21T15:49:36.558Z,2.73
2018-07-21T15:52:05.789Z,2.97
2018-07-21T15:54:34.785Z,2.80
2018-07-21T15:57:04.179Z,2.80
2018-07-21T15:59:33.468Z,2.90
2018-07-21T16:02:02.728Z,2.77
2018-07-21T16:04:31.974Z,2.60
2018-07-21T16:07:01.306Z,2.70
2018-07-21T16:09:30.555Z,2.97
2018-07-21T16:11:59.962Z,2.60
2018-07-21T16:14:29.171Z,2.93
2018-07-21T16:16:58.354Z,3.00
2018-07-21T16:19:27.510Z,3.03
2018-07-21T16:21:56.691Z,2.77
2018-07-21T16:24:25.966Z,2.90
2018-07-21T16:26:55.303Z,3.30
2018-07-21T16:29:24.450Z,3.10
2018-07-21T16:31:53.653Z,2.97
2018-07-21T16:34:23.225Z,3.00
2018-07-21T16:36:52.432Z,2.80
2018-07-21T16:39:21.689Z,3.20
2018-07-21T16:41:50.648Z,2.73
2018-07-21T16:44:20.096Z,2.50
2018-07-21T16:46:49.484Z,3.10
2018-07-21T16:49:18.945Z,3.40
2018-07-21T16:51:48.511Z,3.00
2018-07-21T16:54:18.221Z,3.07
2018-07-21T16:56:47.488Z,3.40
2018-07-21T16:59:16.825Z,3.00
2018-07-21T17:01:46.915Z,3.57
2018-07-21T17:04:16.071Z,2.63
2018-07-21T17:06:45.160Z,3.70
2018-07-21T17:09:14.412Z,3.03
2018-07-21T17:11:43.724Z,3.00
2018-07-21T17:14:13.355Z,3.47
2018-07-21T17:16:48.212Z,3.20
2018-07-21T17:19:17.420Z,3.90
2018-07-21T17:21:46.560Z,3.40
2018-07-21T17:24:16.130Z,3.70
2018-07-21T17:26:45.292Z,3.53
2018-07-21T17:29:14.623Z,3.40
2018-07-21T17:31:44.043Z,3.37
2018-07-21T17:34:13.377Z,3.43
2018-07-21T17:36:42.986Z,3.20
2018-07-21T17:39:13.015Z,3.60
2018-07-21T17:41:42.320Z,3.10
2018-07-21T17:44:11.656Z,3.30
2018-07-21T17:46:40.982Z,2.80
2018-07-21T17:49:10.016Z,3.00
2018-07-21T17:51:39.330Z,3.20
2018-07-21T17:54:08.483Z,3.17
2018-07-21T17:56:37.706Z,3.20
2018-07-21T17:59:06.907Z,3.07
2018-07-21T18:01:36.294Z,3.03
2018-07-21T18:04:06.261Z,3.10
2018-07-21T18:06:34.956Z,3.53
2018-07-21T18:09:03.864Z,3.37
2018-07-21T18:11:33.170Z,2.83
2018-07-21T18:14:02.493Z,3.10
2018-07-21T18:16:31.711Z,3.27
2018-07-21T18:19:01.258Z,3.33
2018-07-21T18:21:30.512Z,3.77
2018-07-21T18:23:59.960Z,3.63
2018-07-21T18:26:28.970Z,3.17
2018-07-21T18:28:58.202Z,3.87
2018-07-21T18:31:27.464Z,2.77
2018-07-21T18:33:56.834Z,2.97
2018-07-21T18:36:25.862Z,3.00
2018-07-21T18:38:54.595Z,2.97
2018-07-21T18:41:23.823Z,3.57
2018-07-21T18:43:54.369Z,3.30
2018-07-21T18:46:23.626Z,3.10
2018-07-21T18:48:52.094Z,3.13
2018-07-21T18:51:20.556Z,3.23
2018-07-21T18:53:49.084Z,3.93
2018-07-21T18:56:17.548Z,3.63
2018-07-21T18:58:46.063Z,3.77
2018-07-21T19:01:14.531Z,3.73
2018-07-21T19:03:43.286Z,3.77
2018-07-21T19:06:11.772Z,3.47
2018-07-21T19:08:45.383Z,3.37
2018-07-21T19:11:13.914Z,4.33
2018-07-21T19:13:42.392Z,3.90
2018-07-21T19:16:16.216Z,4.07
2018-07-21T19:18:45.022Z,4.03
2018-07-21T19:21:19.006Z,3.97
2018-07-21T19:23:48.810Z,4.30
2018-07-21T19:26:22.865Z,4.03
2018-07-21T19:28:51.706Z,4.10
2018-07-21T19:31:20.668Z,4.50
2018-07-21T19:33:49.136Z,4.30
2018-07-21T19:36:17.719Z,7.40
2018-07-21T19:38:46.279Z,4.57
2018-07-21T19:41:20.247Z,4.03
2018-07-21T19:43:49.334Z,4.80
2018-07-21T19:46:18.673Z,4.17
2018-07-21T19:48:47.807Z,3.90
2018-07-21T19:51:16.829Z,4.00
2018-07-21T19:53:46.082Z,4.10
2018-07-21T19:56:15.496Z,4.40
2018-07-21T19:58:44.476Z,4.00
2018-07-21T20:01:13.879Z,4.13
2018-07-21T20:03:43.122Z,3.80
2018-07-21T20:06:12.462Z,4.00
2018-07-21T20:08:41.781Z,4.63
2018-07-21T20:11:10.884Z,4.23
2018-07-21T20:13:39.910Z,4.40
2018-07-21T20:16:09.024Z,4.30
2018-07-21T20:18:38.202Z,4.83
2018-07-21T20:21:07.374Z,4.50
2018-07-21T20:23:36.368Z,4.27
2018-07-21T20:26:05.676Z,4.73
2018-07-21T20:28:34.736Z,4.57
2018-07-21T20:31:04.076Z,4.67
2018-07-21T20:33:33.279Z,4.33
2018-07-21T20:36:02.915Z,4.43
2018-07-21T20:38:32.172Z,4.97
2018-07-21T20:41:01.349Z,5.13
2018-07-21T20:43:31.313Z,4.50
2018-07-21T20:46:00.428Z,5.00
2018-07-21T20:48:29.808Z,4.60
2018-07-21T20:50:59.341Z,4.30
2018-07-21T20:53:28.560Z,4.50
2018-07-21T20:55:57.664Z,5.37
2018-07-21T20:58:26.919Z,4.70
2018-07-21T21:00:55.940Z,4.67
2018-07-21T21:03:25.184Z,4.17
2018-07-21T21:05:54.401Z,4.57
2018-07-21T21:08:23.592Z,5.30
2018-07-21T21:10:52.855Z,4.00
2018-07-21T21:13:22.294Z,4.60
2018-07-21T21:15:51.853Z,4.70
2018-07-21T21:18:21.473Z,4.57
2018-07-21T21:20:50.801Z,4.27
2018-07-21T21:23:21.404Z,5.03
2018-07-21T21:25:51.061Z,3.87
2018-07-21T21:28:21.412Z,4.57
2018-07-21T21:30:50.696Z,4.73
2018-07-21T21:33:19.903Z,4.67
2018-07-21T21:35:49.122Z,4.37
2018-07-21T21:38:18.340Z,4.03
2018-07-21T21:40:47.417Z,4.33
2018-07-21T21:43:16.305Z,4.30
2018-07-21T21:45:45.554Z,4.83
2018-07-21T21:48:14.789Z,4.20
2018-07-21T21:50:43.820Z,4.50
2018-07-21T21:53:13.156Z,4.83
2018-07-21T21:55:42.365Z,4.87
2018-07-21T21:58:11.632Z,4.57
2018-07-21T22:00:50.944Z,4.40
2018-07-21T22:03:20.512Z,4.57
2018-07-21T22:05:49.844Z,4.30
2018-07-21T22:08:19.088Z,4.53
2018-07-21T22:10:48.429Z,4.30
2018-07-21T22:13:17.648Z,4.33
2018-07-21T22:15:46.972Z,4.60
2018-07-21T22:18:16.095Z,4.40
2018-07-21T22:20:45.180Z,4.47
2018-07-21T22:23:14.244Z,4.30
2018-07-21T22:25:43.421Z,4.60
2018-07-21T22:28:12.646Z,4.33
2018-07-21T22:30:41.664Z,4.03
2018-07-21T22:33:10.697Z,4.67
2018-07-21T22:35:39.912Z,4.30
2018-07-21T22:38:08.907Z,4.53
2018-07-21T22:40:37.943Z,4.60
2018-07-21T22:43:06.992Z,4.63
2018-07-21T22:45:36.373Z,4.27
2018-07-21T22:48:05.455Z,4.70
2018-07-21T22:50:34.660Z,4.20
2018-07-21T22:53:03.927Z,4.47
2018-07-21T22:55:32.883Z,4.17
2018-07-21T22:58:02.045Z,4.50
2018-07-21T23:00:31.192Z,4.50
2018-07-21T23:03:00.419Z,3.80
2018-07-21T23:05:29.632Z,4.43
2018-07-21T23:07:58.623Z,3.90
2018-07-21T23:10:27.663Z,4.83
2018-07-21T23:12:57.075Z,4.83
2018-07-21T23:15:26.325Z,4.30
2018-07-21T23:17:55.554Z,5.30
2018-07-21T23:20:24.568Z,4.20
2018-07-21T23:22:53.781Z,4.40
2018-07-21T23:25:22.857Z,4.50
2018-07-21T23:27:52.232Z,4.40
2018-07-21T23:30:21.542Z,4.00
2018-07-21T23:32:51.475Z,4.43
2018-07-21T23:35:20.479Z,4.40
2018-07-21T23:37:49.574Z,4.40
2018-07-21T23:40:18.769Z,4.30
2018-07-21T23:42:48.019Z,3.93
2018-07-21T23:45:17.239Z,3.77
2018-07-21T23:47:46.480Z,4.70
2018-07-21T23:50:15.685Z,4.30
2018-07-21T23:52:44.920Z,4.63
2018-07-21T23:55:13.936Z,4.53
2018-07-21T23:57:42.740Z,4.30
